sensor_id;sensor_type;location;lat;lon;timestamp;pressure;altitude;pressure_sealevel;temperature;humidity
34742;BME280;20968;42.696;23.360;2023-03-31T00:01:04;95224.75;;;12.51;47.61
34742;BME280;20968;42.696;23.360;2023-03-31T00:03:29;95225.25;;;12.50;48.37
34742;BME280;20968;42.696;23.360;2023-03-31T00:05:58;95229.25;;;12.49;48.61
34742;BME280;20968;42.696;23.360;2023-03-31T00:08:24;95230.50;;;12.48;48.24
34742;BME280;20968;42.696;23.360;2023-03-31T00:10:49;95228.72;;;12.45;49.11
34742;BME280;20968;42.696;23.360;2023-03-31T00:13:15;95227.00;;;12.47;48.97
34742;BME280;20968;42.696;23.360;2023-03-31T00:15:40;95216.59;;;12.37;48.99
34742;BME280;20968;42.696;23.360;2023-03-31T00:18:06;95209.81;;;12.38;49.53
34742;BME280;20968;42.696;23.360;2023-03-31T00:20:31;95220.59;;;12.36;49.04
34742;BME280;20968;42.696;23.360;2023-03-31T00:22:57;95209.28;;;12.34;49.83
34742;BME280;20968;42.696;23.360;2023-03-31T00:25:23;95215.09;;;12.36;49.36
34742;BME280;20968;42.696;23.360;2023-03-31T00:27:48;95217.06;;;12.36;49.61
34742;BME280;20968;42.696;23.360;2023-03-31T00:30:16;95212.75;;;12.29;49.26
34742;BME280;20968;42.696;23.360;2023-03-31T00:32:42;95222.53;;;12.30;49.92
34742;BME280;20968;42.696;23.360;2023-03-31T00:35:07;95210.69;;;12.24;49.69
34742;BME280;20968;42.696;23.360;2023-03-31T00:37:33;95217.22;;;12.27;49.55
34742;BME280;20968;42.696;23.360;2023-03-31T00:39:58;95208.91;;;12.21;49.61
34742;BME280;20968;42.696;23.360;2023-03-31T00:42:24;95204.94;;;12.28;50.14
34742;BME280;20968;42.696;23.360;2023-03-31T00:45:20;95205.44;;;12.26;49.87
34742;BME280;20968;42.696;23.360;2023-03-31T00:47:46;95203.22;;;12.30;50.65
34742;BME280;20968;42.696;23.360;2023-03-31T00:50:17;95200.44;;;12.30;49.85
34742;BME280;20968;42.696;23.360;2023-03-31T00:52:44;95195.75;;;12.36;50.22
34742;BME280;20968;42.696;23.360;2023-03-31T00:55:13;95190.47;;;12.38;49.84
34742;BME280;20968;42.696;23.360;2023-03-31T00:57:40;95195.31;;;12.43;50.00
34742;BME280;20968;42.696;23.360;2023-03-31T01:00:09;95184.78;;;12.47;50.19
34742;BME280;20968;42.696;23.360;2023-03-31T01:02:48;95182.69;;;12.37;51.36
34742;BME280;20968;42.696;23.360;2023-03-31T01:05:23;95169.88;;;12.34;51.05
34742;BME280;20968;42.696;23.360;2023-03-31T01:07:49;95172.66;;;12.34;51.37
34742;BME280;20968;42.696;23.360;2023-03-31T01:10:16;95168.66;;;12.40;50.44
34742;BME280;20968;42.696;23.360;2023-03-31T01:12:43;95179.44;;;12.38;50.33
34742;BME280;20968;42.696;23.360;2023-03-31T01:15:09;95175.44;;;12.39;50.42
34742;BME280;20968;42.696;23.360;2023-03-31T01:17:35;95178.03;;;12.48;50.89
34742;BME280;20968;42.696;23.360;2023-03-31T01:39:13;95189.69;;;12.07;52.66
34742;BME280;20968;42.696;23.360;2023-03-31T01:42:06;95196.88;;;11.99;53.65
34742;BME280;20968;42.696;23.360;2023-03-31T01:49:30;95201.75;;;11.84;52.32
34742;BME280;20968;42.696;23.360;2023-03-31T01:52:09;95212.84;;;11.89;52.85
34742;BME280;20968;42.696;23.360;2023-03-31T01:57:11;95216.63;;;11.92;52.75
34742;BME280;20968;42.696;23.360;2023-03-31T01:59:41;95211.69;;;11.96;52.04
34742;BME280;20968;42.696;23.360;2023-03-31T02:02:10;95219.19;;;11.95;51.94
34742;BME280;20968;42.696;23.360;2023-03-31T02:04:39;95220.00;;;12.01;51.80
34742;BME280;20968;42.696;23.360;2023-03-31T02:07:07;95220.06;;;12.07;52.57
34742;BME280;20968;42.696;23.360;2023-03-31T02:09:37;95224.63;;;12.10;51.90
34742;BME280;20968;42.696;23.360;2023-03-31T02:12:04;95212.56;;;12.07;52.52
34742;BME280;20968;42.696;23.360;2023-03-31T02:14:32;95225.34;;;12.10;51.78
34742;BME280;20968;42.696;23.360;2023-03-31T02:16:59;95223.16;;;12.14;52.05
34742;BME280;20968;42.696;23.360;2023-03-31T02:19:31;95225.91;;;12.14;51.96
34742;BME280;20968;42.696;23.360;2023-03-31T02:21:58;95236.41;;;12.10;52.39
34742;BME280;20968;42.696;23.360;2023-03-31T02:24:24;95237.19;;;12.11;52.59
34742;BME280;20968;42.696;23.360;2023-03-31T02:26:51;95248.44;;;12.07;52.96
34742;BME280;20968;42.696;23.360;2023-03-31T02:29:18;95256.91;;;12.04;53.75
34742;BME280;20968;42.696;23.360;2023-03-31T02:34:18;95256.66;;;12.02;55.39
34742;BME280;20968;42.696;23.360;2023-03-31T02:36:43;95254.63;;;12.02;55.95
34742;BME280;20968;42.696;23.360;2023-03-31T02:39:14;95264.44;;;12.03;56.11
34742;BME280;20968;42.696;23.360;2023-03-31T02:41:41;95258.09;;;11.97;56.63
34742;BME280;20968;42.696;23.360;2023-03-31T02:44:07;95268.84;;;11.95;56.48
34742;BME280;20968;42.696;23.360;2023-03-31T02:46:33;95263.34;;;11.95;56.35
34742;BME280;20968;42.696;23.360;2023-03-31T02:49:01;95255.28;;;11.92;56.16
34742;BME280;20968;42.696;23.360;2023-03-31T02:51:37;95262.72;;;11.86;56.61
34742;BME280;20968;42.696;23.360;2023-03-31T02:54:13;95242.84;;;11.82;57.64
34742;BME280;20968;42.696;23.360;2023-03-31T02:59:29;95235.88;;;11.86;57.36
34742;BME280;20968;42.696;23.360;2023-03-31T03:04:34;95224.69;;;11.95;57.38
34742;BME280;20968;42.696;23.360;2023-03-31T03:07:44;95221.94;;;11.95;57.92
34742;BME280;20968;42.696;23.360;2023-03-31T03:09:59;95215.03;;;12.05;57.34
34742;BME280;20968;42.696;23.360;2023-03-31T03:17:27;95198.84;;;12.18;57.38
34742;BME280;20968;42.696;23.360;2023-03-31T03:19:53;95194.34;;;12.21;58.05
34742;BME280;20968;42.696;23.360;2023-03-31T03:22:19;95186.63;;;12.25;57.46
34742;BME280;20968;42.696;23.360;2023-03-31T03:24:45;95180.09;;;12.28;57.63
34742;BME280;20968;42.696;23.360;2023-03-31T03:27:11;95181.41;;;12.32;58.92
34742;BME280;20968;42.696;23.360;2023-03-31T03:29:36;95196.22;;;12.35;59.24
34742;BME280;20968;42.696;23.360;2023-03-31T03:32:01;95197.75;;;12.36;59.51
34742;BME280;20968;42.696;23.360;2023-03-31T03:34:27;95193.00;;;12.36;59.18
34742;BME280;20968;42.696;23.360;2023-03-31T03:36:52;95190.00;;;12.40;59.12
34742;BME280;20968;42.696;23.360;2023-03-31T03:39:17;95182.75;;;12.42;59.29
34742;BME280;20968;42.696;23.360;2023-03-31T03:41:42;95183.03;;;12.44;59.97
34742;BME280;20968;42.696;23.360;2023-03-31T03:44:08;95185.06;;;12.49;59.83
34742;BME280;20968;42.696;23.360;2023-03-31T03:46:34;95183.53;;;12.48;58.47
34742;BME280;20968;42.696;23.360;2023-03-31T03:48:59;95180.03;;;12.47;58.55
34742;BME280;20968;42.696;23.360;2023-03-31T03:51:25;95178.47;;;12.41;60.45
34742;BME280;20968;42.696;23.360;2023-03-31T03:53:50;95178.19;;;12.39;61.19
34742;BME280;20968;42.696;23.360;2023-03-31T03:56:15;95169.59;;;12.32;62.08
34742;BME280;20968;42.696;23.360;2023-03-31T03:58:41;95167.88;;;12.34;60.79
34742;BME280;20968;42.696;23.360;2023-03-31T04:01:06;95170.91;;;12.36;61.58
34742;BME280;20968;42.696;23.360;2023-03-31T04:03:31;95169.38;;;12.35;60.84
34742;BME280;20968;42.696;23.360;2023-03-31T04:05:56;95172.16;;;12.35;61.43
34742;BME280;20968;42.696;23.360;2023-03-31T04:08:22;95179.44;;;12.38;59.95
34742;BME280;20968;42.696;23.360;2023-03-31T04:10:47;95180.22;;;12.39;60.79
34742;BME280;20968;42.696;23.360;2023-03-31T04:13:14;95179.41;;;12.33;60.99
34742;BME280;20968;42.696;23.360;2023-03-31T04:15:39;95190.97;;;12.37;60.91
34742;BME280;20968;42.696;23.360;2023-03-31T04:18:04;95190.75;;;12.40;60.61
34742;BME280;20968;42.696;23.360;2023-03-31T04:20:30;95188.72;;;12.35;60.47
34742;BME280;20968;42.696;23.360;2023-03-31T04:22:55;95192.00;;;12.39;60.77
34742;BME280;20968;42.696;23.360;2023-03-31T04:25:21;95186.47;;;12.39;61.07
34742;BME280;20968;42.696;23.360;2023-03-31T04:27:47;95186.47;;;12.39;61.74
34742;BME280;20968;42.696;23.360;2023-03-31T04:30:19;95182.47;;;12.40;61.80
34742;BME280;20968;42.696;23.360;2023-03-31T04:32:51;95184.00;;;12.41;61.87
34742;BME280;20968;42.696;23.360;2023-03-31T04:35:19;95186.09;;;12.51;64.06
34742;BME280;20968;42.696;23.360;2023-03-31T04:37:47;95186.06;;;12.82;61.95
34742;BME280;20968;42.696;23.360;2023-03-31T04:40:13;95177.69;;;13.02;61.57
34742;BME280;20968;42.696;23.360;2023-03-31T04:42:39;95174.00;;;13.21;60.93
34742;BME280;20968;42.696;23.360;2023-03-31T04:45:05;95174.66;;;13.47;60.21
34742;BME280;20968;42.696;23.360;2023-03-31T04:47:30;95175.66;;;13.50;59.75
34742;BME280;20968;42.696;23.360;2023-03-31T04:49:56;95173.16;;;13.52;59.39
34742;BME280;20968;42.696;23.360;2023-03-31T04:52:21;95167.59;;;13.46;59.55
34742;BME280;20968;42.696;23.360;2023-03-31T04:54:46;95181.44;;;13.46;59.10
34742;BME280;20968;42.696;23.360;2023-03-31T04:57:11;95172.63;;;13.42;59.23
34742;BME280;20968;42.696;23.360;2023-03-31T04:59:37;95170.53;;;13.26;59.77
34742;BME280;20968;42.696;23.360;2023-03-31T05:02:02;95172.91;;;13.03;62.11
34742;BME280;20968;42.696;23.360;2023-03-31T05:04:27;95165.81;;;12.91;62.44
34742;BME280;20968;42.696;23.360;2023-03-31T05:06:52;95165.19;;;12.81;61.92
34742;BME280;20968;42.696;23.360;2023-03-31T05:09:18;95163.47;;;12.53;64.26
34742;BME280;20968;42.696;23.360;2023-03-31T05:11:44;95156.28;;;12.30;64.53
34742;BME280;20968;42.696;23.360;2023-03-31T05:14:10;95159.47;;;12.23;63.98
34742;BME280;20968;42.696;23.360;2023-03-31T05:16:35;95152.88;;;12.15;64.52
34742;BME280;20968;42.696;23.360;2023-03-31T05:19:00;95148.41;;;12.18;65.07
34742;BME280;20968;42.696;23.360;2023-03-31T05:21:25;95156.72;;;12.23;64.77
34742;BME280;20968;42.696;23.360;2023-03-31T05:23:52;95153.31;;;12.34;64.74
34742;BME280;20968;42.696;23.360;2023-03-31T05:26:17;95147.69;;;12.23;64.17
34742;BME280;20968;42.696;23.360;2023-03-31T05:28:43;95147.03;;;12.33;63.54
34742;BME280;20968;42.696;23.360;2023-03-31T05:31:09;95152.38;;;12.42;63.33
34742;BME280;20968;42.696;23.360;2023-03-31T05:33:35;95143.81;;;12.40;64.13
34742;BME280;20968;42.696;23.360;2023-03-31T05:36:04;95138.84;;;12.44;63.87
34742;BME280;20968;42.696;23.360;2023-03-31T05:38:30;95131.00;;;12.37;64.40
34742;BME280;20968;42.696;23.360;2023-03-31T05:40:55;95143.91;;;12.51;64.68
34742;BME280;20968;42.696;23.360;2023-03-31T05:43:21;95137.03;;;12.41;63.78
34742;BME280;20968;42.696;23.360;2023-03-31T05:45:46;95140.66;;;12.52;63.93
34742;BME280;20968;42.696;23.360;2023-03-31T05:48:13;95133.19;;;12.64;64.00
34742;BME280;20968;42.696;23.360;2023-03-31T05:50:39;95134.25;;;12.72;64.16
34742;BME280;20968;42.696;23.360;2023-03-31T05:53:04;95132.81;;;12.87;63.96
34742;BME280;20968;42.696;23.360;2023-03-31T05:55:29;95143.00;;;13.01;64.23
34742;BME280;20968;42.696;23.360;2023-03-31T05:57:55;95146.09;;;13.14;63.29
34742;BME280;20968;42.696;23.360;2023-03-31T06:00:20;95147.41;;;13.24;63.04
34742;BME280;20968;42.696;23.360;2023-03-31T06:02:46;95153.47;;;13.33;61.55
34742;BME280;20968;42.696;23.360;2023-03-31T06:05:11;95152.22;;;13.34;61.90
34742;BME280;20968;42.696;23.360;2023-03-31T06:07:36;95158.00;;;13.36;60.24
34742;BME280;20968;42.696;23.360;2023-03-31T06:10:02;95155.97;;;13.31;59.31
34742;BME280;20968;42.696;23.360;2023-03-31T06:12:27;95152.41;;;13.25;59.97
34742;BME280;20968;42.696;23.360;2023-03-31T06:14:52;95153.72;;;13.35;59.89
34742;BME280;20968;42.696;23.360;2023-03-31T06:17:18;95155.47;;;13.33;59.73
34742;BME280;20968;42.696;23.360;2023-03-31T06:19:43;95151.47;;;13.39;58.97
34742;BME280;20968;42.696;23.360;2023-03-31T06:22:08;95145.47;;;13.46;58.38
34742;BME280;20968;42.696;23.360;2023-03-31T06:24:34;95133.16;;;13.47;59.41
34742;BME280;20968;42.696;23.360;2023-03-31T06:26:59;95145.50;;;13.57;58.65
34742;BME280;20968;42.696;23.360;2023-03-31T06:29:25;95149.06;;;13.63;59.40
34742;BME280;20968;42.696;23.360;2023-03-31T06:31:51;95144.28;;;13.69;58.58
34742;BME280;20968;42.696;23.360;2023-03-31T06:34:16;95144.31;;;13.75;58.33
34742;BME280;20968;42.696;23.360;2023-03-31T06:36:42;95148.13;;;13.99;58.76
34742;BME280;20968;42.696;23.360;2023-03-31T06:39:07;95149.72;;;14.11;58.14
34742;BME280;20968;42.696;23.360;2023-03-31T06:41:32;95146.19;;;14.32;57.29
34742;BME280;20968;42.696;23.360;2023-03-31T06:43:58;95136.38;;;14.42;57.14
34742;BME280;20968;42.696;23.360;2023-03-31T06:46:23;95142.91;;;14.67;57.33
34742;BME280;20968;42.696;23.360;2023-03-31T06:48:48;95150.69;;;14.84;56.87
34742;BME280;20968;42.696;23.360;2023-03-31T06:51:14;95155.00;;;14.75;55.84
34742;BME280;20968;42.696;23.360;2023-03-31T06:53:39;95155.03;;;14.69;56.01
34742;BME280;20968;42.696;23.360;2023-03-31T06:56:04;95153.72;;;14.70;55.59
34742;BME280;20968;42.696;23.360;2023-03-31T06:58:30;95152.25;;;14.69;55.54
34742;BME280;20968;42.696;23.360;2023-03-31T07:00:56;95142.16;;;14.72;55.27
34742;BME280;20968;42.696;23.360;2023-03-31T07:03:21;95134.59;;;14.83;55.42
34742;BME280;20968;42.696;23.360;2023-03-31T07:05:49;95126.22;;;15.05;55.30
34742;BME280;20968;42.696;23.360;2023-03-31T07:08:15;95121.16;;;15.09;53.79
34742;BME280;20968;42.696;23.360;2023-03-31T07:10:42;95108.25;;;15.17;53.52
34742;BME280;20968;42.696;23.360;2023-03-31T07:13:07;95095.50;;;14.92;53.10
34742;BME280;20968;42.696;23.360;2023-03-31T07:15:32;95096.03;;;14.79;53.20
34742;BME280;20968;42.696;23.360;2023-03-31T07:17:58;95085.59;;;15.13;53.10
34742;BME280;20968;42.696;23.360;2023-03-31T07:20:26;95076.66;;;15.42;51.91
34742;BME280;20968;42.696;23.360;2023-03-31T07:22:52;95075.47;;;15.72;50.69
34742;BME280;20968;42.696;23.360;2023-03-31T07:25:17;95077.75;;;15.79;51.68
34742;BME280;20968;42.696;23.360;2023-03-31T07:27:43;95073.06;;;15.98;51.78
34742;BME280;20968;42.696;23.360;2023-03-31T07:30:16;95080.38;;;16.01;49.42
34742;BME280;20968;42.696;23.360;2023-03-31T07:32:41;95087.38;;;16.07;46.53
34742;BME280;20968;42.696;23.360;2023-03-31T07:35:07;95085.94;;;16.01;46.53
34742;BME280;20968;42.696;23.360;2023-03-31T07:37:34;95080.00;;;16.15;46.17
34742;BME280;20968;42.696;23.360;2023-03-31T07:40:01;95081.47;;;16.22;45.32
34742;BME280;20968;42.696;23.360;2023-03-31T07:42:26;95072.88;;;16.20;45.41
34742;BME280;20968;42.696;23.360;2023-03-31T07:44:51;95072.88;;;16.20;46.10
34742;BME280;20968;42.696;23.360;2023-03-31T07:47:17;95066.56;;;16.25;44.77
34742;BME280;20968;42.696;23.360;2023-03-31T07:49:42;95075.88;;;16.27;45.29
34742;BME280;20968;42.696;23.360;2023-03-31T07:52:07;95076.16;;;16.24;45.18
34742;BME280;20968;42.696;23.360;2023-03-31T07:54:33;95070.19;;;16.43;44.91
34742;BME280;20968;42.696;23.360;2023-03-31T07:56:58;95083.84;;;16.71;44.63
34742;BME280;20968;42.696;23.360;2023-03-31T07:59:25;95084.00;;;16.78;44.45
34742;BME280;20968;42.696;23.360;2023-03-31T08:01:51;95079.91;;;16.85;43.22
34742;BME280;20968;42.696;23.360;2023-03-31T08:04:16;95074.63;;;16.81;43.17
34742;BME280;20968;42.696;23.360;2023-03-31T08:06:41;95062.34;;;16.47;43.60
34742;BME280;20968;42.696;23.360;2023-03-31T08:09:06;95052.84;;;16.32;44.30
34742;BME280;20968;42.696;23.360;2023-03-31T08:11:32;95066.16;;;16.10;44.35
34742;BME280;20968;42.696;23.360;2023-03-31T08:13:57;95047.03;;;16.01;44.25
34742;BME280;20968;42.696;23.360;2023-03-31T08:16:23;95046.84;;;15.88;44.26
34742;BME280;20968;42.696;23.360;2023-03-31T08:18:48;95052.50;;;15.77;44.79
34742;BME280;20968;42.696;23.360;2023-03-31T08:21:13;95054.84;;;15.67;44.54
34742;BME280;20968;42.696;23.360;2023-03-31T08:23:39;95045.31;;;15.52;44.94
34742;BME280;20968;42.696;23.360;2023-03-31T08:26:08;95047.63;;;15.48;44.75
34742;BME280;20968;42.696;23.360;2023-03-31T08:28:33;95046.84;;;15.48;45.01
34742;BME280;20968;42.696;23.360;2023-03-31T08:31:03;95049.38;;;15.51;45.35
34742;BME280;20968;42.696;23.360;2023-03-31T08:33:29;95049.38;;;15.46;45.07
34742;BME280;20968;42.696;23.360;2023-03-31T08:35:54;95045.88;;;15.45;45.07
34742;BME280;20968;42.696;23.360;2023-03-31T08:38:19;95035.50;;;15.51;45.29
34742;BME280;20968;42.696;23.360;2023-03-31T08:40:45;95038.22;;;15.62;45.01
34742;BME280;20968;42.696;23.360;2023-03-31T08:43:11;95035.00;;;15.87;44.77
34742;BME280;20968;42.696;23.360;2023-03-31T08:45:41;95036.75;;;15.90;44.44
34742;BME280;20968;42.696;23.360;2023-03-31T08:50:44;95031.31;;;15.74;44.77
34742;BME280;20968;42.696;23.360;2023-03-31T08:55:47;95023.09;;;15.57;44.92
34742;BME280;20968;42.696;23.360;2023-03-31T09:06:28;95000.38;;;15.59;44.76
34742;BME280;20968;42.696;23.360;2023-03-31T09:08:58;95017.19;;;15.72;45.13
34742;BME280;20968;42.696;23.360;2023-03-31T09:11:31;95009.59;;;15.78;44.17
34742;BME280;20968;42.696;23.360;2023-03-31T09:14:13;95010.72;;;15.93;44.34
34742;BME280;20968;42.696;23.360;2023-03-31T09:19:38;95000.50;;;16.84;42.44
34742;BME280;20968;42.696;23.360;2023-03-31T09:22:08;94999.75;;;17.25;41.93
34742;BME280;20968;42.696;23.360;2023-03-31T09:24:38;95004.53;;;17.49;40.69
34742;BME280;20968;42.696;23.360;2023-03-31T09:27:09;95006.91;;;17.76;40.46
34742;BME280;20968;42.696;23.360;2023-03-31T09:29:41;95008.50;;;17.72;40.20
34742;BME280;20968;42.696;23.360;2023-03-31T09:32:15;95004.91;;;17.77;40.23
34742;BME280;20968;42.696;23.360;2023-03-31T09:34:41;95012.84;;;17.86;39.91
34742;BME280;20968;42.696;23.360;2023-03-31T09:37:08;95009.34;;;17.98;39.44
34742;BME280;20968;42.696;23.360;2023-03-31T09:39:33;95001.81;;;18.11;39.47
34742;BME280;20968;42.696;23.360;2023-03-31T09:41:59;95003.94;;;18.05;38.94
34742;BME280;20968;42.696;23.360;2023-03-31T09:44:26;94991.00;;;17.90;39.02
34742;BME280;20968;42.696;23.360;2023-03-31T09:46:52;94988.53;;;17.86;39.18
34742;BME280;20968;42.696;23.360;2023-03-31T09:49:19;94989.44;;;18.07;38.58
34742;BME280;20968;42.696;23.360;2023-03-31T09:51:46;94986.56;;;18.31;39.23
34742;BME280;20968;42.696;23.360;2023-03-31T09:54:15;94989.75;;;18.22;38.32
34742;BME280;20968;42.696;23.360;2023-03-31T09:56:45;94987.91;;;18.24;39.13
34742;BME280;20968;42.696;23.360;2023-03-31T09:59:22;94980.25;;;18.43;38.07
34742;BME280;20968;42.696;23.360;2023-03-31T10:01:49;94977.47;;;18.43;38.36
34742;BME280;20968;42.696;23.360;2023-03-31T10:04:21;94988.16;;;18.39;38.61
34742;BME280;20968;42.696;23.360;2023-03-31T10:06:47;94978.19;;;18.44;38.50
34742;BME280;20968;42.696;23.360;2023-03-31T10:09:13;94965.44;;;18.61;38.07
34742;BME280;20968;42.696;23.360;2023-03-31T10:11:38;94963.53;;;18.56;37.44
34742;BME280;20968;42.696;23.360;2023-03-31T10:14:15;94964.78;;;18.29;38.05
34742;BME280;20968;42.696;23.360;2023-03-31T10:16:51;94960.50;;;18.28;38.58
34742;BME280;20968;42.696;23.360;2023-03-31T10:19:24;94953.50;;;18.22;38.57
34742;BME280;20968;42.696;23.360;2023-03-31T10:24:22;94954.03;;;18.20;38.38
34742;BME280;20968;42.696;23.360;2023-03-31T10:26:48;94941.91;;;18.18;39.16
34742;BME280;20968;42.696;23.360;2023-03-31T10:29:16;94944.09;;;18.38;39.58
34742;BME280;20968;42.696;23.360;2023-03-31T10:31:45;94941.53;;;18.53;38.40
34742;BME280;20968;42.696;23.360;2023-03-31T10:34:11;94946.97;;;18.45;38.34
34742;BME280;20968;42.696;23.360;2023-03-31T10:36:44;94932.28;;;18.58;38.45
34742;BME280;20968;42.696;23.360;2023-03-31T10:39:10;94928.53;;;18.81;38.36
34742;BME280;20968;42.696;23.360;2023-03-31T10:41:42;94928.44;;;18.86;37.92
34742;BME280;20968;42.696;23.360;2023-03-31T10:44:22;94922.09;;;18.73;38.96
34742;BME280;20968;42.696;23.360;2023-03-31T10:46:53;94921.34;;;18.73;39.05
34742;BME280;20968;42.696;23.360;2023-03-31T10:51:53;94925.13;;;18.36;39.40
34742;BME280;20968;42.696;23.360;2023-03-31T10:54:19;94927.13;;;18.23;40.02
34742;BME280;20968;42.696;23.360;2023-03-31T10:56:46;94916.06;;;18.30;40.32
34742;BME280;20968;42.696;23.360;2023-03-31T11:12:14;94909.44;;;18.20;40.11
34742;BME280;20968;42.696;23.360;2023-03-31T11:25:26;94886.41;;;17.89;39.97
34742;BME280;20968;42.696;23.360;2023-03-31T11:30:42;94879.47;;;17.95;40.27
34742;BME280;20968;42.696;23.360;2023-03-31T11:33:25;94864.44;;;17.98;40.09
34742;BME280;20968;42.696;23.360;2023-03-31T11:36:01;94875.25;;;18.33;39.87
34742;BME280;20968;42.696;23.360;2023-03-31T11:41:01;94865.16;;;18.56;39.61
34742;BME280;20968;42.696;23.360;2023-03-31T11:43:44;94864.88;;;18.79;38.63
34742;BME280;20968;42.696;23.360;2023-03-31T11:48:40;94858.00;;;18.80;38.87
34742;BME280;20968;42.696;23.360;2023-03-31T11:51:28;94847.41;;;18.79;39.27
34742;BME280;20968;42.696;23.360;2023-03-31T11:53:56;94845.91;;;18.78;38.91
34742;BME280;20968;42.696;23.360;2023-03-31T11:56:23;94841.63;;;18.64;38.63
34742;BME280;20968;42.696;23.360;2023-03-31T11:58:52;94851.53;;;18.52;39.15
34742;BME280;20968;42.696;23.360;2023-03-31T12:01:43;94828.66;;;18.54;39.14
34742;BME280;20968;42.696;23.360;2023-03-31T12:04:08;94832.72;;;18.66;38.89
34742;BME280;20968;42.696;23.360;2023-03-31T12:06:36;94827.47;;;18.75;38.91
34742;BME280;20968;42.696;23.360;2023-03-31T12:14:29;94824.59;;;19.01;38.67
34742;BME280;20968;42.696;23.360;2023-03-31T12:17:10;94815.38;;;18.93;38.20
34742;BME280;20968;42.696;23.360;2023-03-31T12:24:43;94811.78;;;19.05;37.40
34742;BME280;20968;42.696;23.360;2023-03-31T12:27:18;94815.53;;;19.08;37.82
34742;BME280;20968;42.696;23.360;2023-03-31T12:29:54;94814.25;;;19.09;37.96
34742;BME280;20968;42.696;23.360;2023-03-31T12:32:21;94800.19;;;19.14;37.84
34742;BME280;20968;42.696;23.360;2023-03-31T12:35:12;94796.84;;;19.16;37.11
34742;BME280;20968;42.696;23.360;2023-03-31T12:50:15;94779.44;;;20.47;36.13
34742;BME280;20968;42.696;23.360;2023-03-31T12:55:32;94765.34;;;21.32;34.63
34742;BME280;20968;42.696;23.360;2023-03-31T13:06:00;94736.56;;;21.24;34.37
34742;BME280;20968;42.696;23.360;2023-03-31T13:11:10;94727.25;;;21.59;33.92
34742;BME280;20968;42.696;23.360;2023-03-31T13:13:35;94722.03;;;21.63;33.95
34742;BME280;20968;42.696;23.360;2023-03-31T13:16:05;94708.19;;;21.50;34.23
34742;BME280;20968;42.696;23.360;2023-03-31T13:18:30;94705.94;;;21.86;33.23
34742;BME280;20968;42.696;23.360;2023-03-31T13:21:01;94695.13;;;21.68;33.21
34742;BME280;20968;42.696;23.360;2023-03-31T13:23:29;94684.09;;;21.62;33.17
34742;BME280;20968;42.696;23.360;2023-03-31T13:25:56;94675.28;;;21.73;33.31
34742;BME280;20968;42.696;23.360;2023-03-31T13:30:49;94659.97;;;21.52;34.08
34742;BME280;20968;42.696;23.360;2023-03-31T13:33:19;94655.84;;;21.53;34.43
34742;BME280;20968;42.696;23.360;2023-03-31T13:35:47;94656.94;;;21.87;33.08
34742;BME280;20968;42.696;23.360;2023-03-31T13:48:59;94637.44;;;22.04;33.60
34742;BME280;20968;42.696;23.360;2023-03-31T13:57:16;94614.53;;;22.22;32.87
34742;BME280;20968;42.696;23.360;2023-03-31T14:07:22;94610.34;;;21.99;33.71
34742;BME280;20968;42.696;23.360;2023-03-31T14:09:52;94607.50;;;22.06;32.83
34742;BME280;20968;42.696;23.360;2023-03-31T14:12:18;94600.84;;;21.87;32.90
34742;BME280;20968;42.696;23.360;2023-03-31T14:14:45;94603.50;;;21.85;33.47
34742;BME280;20968;42.696;23.360;2023-03-31T14:17:11;94610.22;;;21.82;33.07
34742;BME280;20968;42.696;23.360;2023-03-31T14:22:47;94599.19;;;21.77;33.81
34742;BME280;20968;42.696;23.360;2023-03-31T14:27:59;94595.75;;;21.31;34.22
34742;BME280;20968;42.696;23.360;2023-03-31T14:30:41;94592.78;;;21.22;35.14
34742;BME280;20968;42.696;23.360;2023-03-31T14:33:23;94589.56;;;21.40;34.77
34742;BME280;20968;42.696;23.360;2023-03-31T14:38:21;94576.56;;;21.82;34.05
34742;BME280;20968;42.696;23.360;2023-03-31T14:40:51;94575.28;;;21.76;34.06
34742;BME280;20968;42.696;23.360;2023-03-31T14:43:25;94575.06;;;21.81;34.27
34742;BME280;20968;42.696;23.360;2023-03-31T14:45:59;94568.69;;;21.88;33.89
34742;BME280;20968;42.696;23.360;2023-03-31T14:48:26;94567.75;;;21.93;33.81
34742;BME280;20968;42.696;23.360;2023-03-31T14:50:55;94571.28;;;21.93;33.90
34742;BME280;20968;42.696;23.360;2023-03-31T14:53:23;94561.81;;;21.82;33.88
34742;BME280;20968;42.696;23.360;2023-03-31T14:55:48;94561.59;;;21.87;34.69
34742;BME280;20968;42.696;23.360;2023-03-31T14:58:18;94563.28;;;21.90;34.27
34742;BME280;20968;42.696;23.360;2023-03-31T15:00:48;94558.56;;;22.00;34.76
34742;BME280;20968;42.696;23.360;2023-03-31T15:03:15;94563.78;;;21.96;34.32
34742;BME280;20968;42.696;23.360;2023-03-31T15:05:41;94552.66;;;21.81;34.14
34742;BME280;20968;42.696;23.360;2023-03-31T15:08:15;94554.06;;;21.43;34.14
34742;BME280;20968;42.696;23.360;2023-03-31T15:10:44;94549.00;;;21.49;34.93
34742;BME280;20968;42.696;23.360;2023-03-31T15:13:20;94550.69;;;21.52;35.24
34742;BME280;20968;42.696;23.360;2023-03-31T15:15:51;94552.50;;;21.64;35.37
34742;BME280;20968;42.696;23.360;2023-03-31T15:18:16;94544.88;;;21.57;34.86
34742;BME280;20968;42.696;23.360;2023-03-31T15:20:43;94550.09;;;21.61;35.31
34742;BME280;20968;42.696;23.360;2023-03-31T15:23:19;94554.59;;;21.64;35.10
34742;BME280;20968;42.696;23.360;2023-03-31T15:25:58;94552.38;;;21.40;35.18
34742;BME280;20968;42.696;23.360;2023-03-31T15:28:30;94546.66;;;21.15;36.13
34742;BME280;20968;42.696;23.360;2023-03-31T15:30:58;94541.44;;;20.97;36.03
34742;BME280;20968;42.696;23.360;2023-03-31T15:33:29;94547.97;;;20.92;35.75
34742;BME280;20968;42.696;23.360;2023-03-31T15:35:55;94547.78;;;20.83;36.08
34742;BME280;20968;42.696;23.360;2023-03-31T15:38:21;94539.38;;;20.75;36.23